Time;durP1;ratioP1;P1;durP2;ratioP2;P2;SDS_P1;SDS_P2;PMS_P1;PMS_P2;Temp;Humidity;BMP_temperature;BMP_pressure;BME280_temperature;BME280_humidity;BME280_pressure;Samples;Min_cycle;Max_cycle;Signal;HPM_P1;HPM_P2
2023/06/28 00:00:06;;;;;;;6.53;1.85;;;21.00;67.70;;;;;;5062921;28;20116;-83
2023/06/28 00:02:38;;;;;;;2.75;1.67;;;21.00;67.60;;;;;;5064343;28;20020;-83
2023/06/28 00:05:04;;;;;;;6.57;2.15;;;21.00;67.80;;;;;;5063795;28;20029;-83
2023/06/28 00:07:32;;;;;;;6.30;2.00;;;21.00;67.70;;;;;;5066534;28;20350;-83
2023/06/28 00:09:58;;;;;;;12.95;1.92;;;21.00;67.40;;;;;;5064301;28;20055;-83
2023/06/28 00:12:23;;;;;;;10.52;1.90;;;21.00;67.50;;;;;;5064553;28;20017;-84
2023/06/28 00:14:49;;;;;;;1.58;1.40;;;20.90;67.50;;;;;;5062428;28;20115;-84
2023/06/28 00:17:15;;;;;;;3.75;1.90;;;20.90;67.50;;;;;;5064409;28;21604;-83
2023/06/28 00:19:47;;;;;;;6.35;1.98;;;20.90;67.40;;;;;;5056537;28;20412;-83
2023/06/28 00:22:17;;;;;;;5.55;1.88;;;21.00;67.40;;;;;;5065478;28;20020;-83
2023/06/28 00:24:42;;;;;;;7.72;1.92;;;21.00;67.50;;;;;;5065430;28;20483;-83
2023/06/28 00:27:11;;;;;;;6.00;2.22;;;20.90;67.50;;;;;;5064807;28;20029;-83
2023/06/28 00:29:37;;;;;;;3.25;1.65;;;20.90;67.40;;;;;;5066700;28;20380;-83
2023/06/28 00:32:03;;;;;;;3.13;1.77;;;20.90;67.60;;;;;;5067612;28;20017;-83
2023/06/28 00:34:29;;;;;;;4.05;1.90;;;20.90;67.60;;;;;;5059450;28;20358;-84
2023/06/28 00:36:54;;;;;;;5.68;2.03;;;20.90;67.60;;;;;;5066187;28;20093;-83
2023/06/28 00:39:20;;;;;;;4.65;1.58;;;20.90;67.40;;;;;;5066071;28;20017;-83
2023/06/28 00:41:45;;;;;;;3.15;1.60;;;20.90;68.30;;;;;;5066581;28;20034;-83
2023/06/28 00:44:11;;;;;;;4.68;1.85;;;20.90;67.60;;;;;;5065804;28;20029;-83
2023/06/28 00:46:37;;;;;;;6.75;2.05;;;20.90;67.70;;;;;;5064258;28;20024;-83
2023/06/28 00:49:04;;;;;;;5.85;1.83;;;20.90;67.50;;;;;;5064420;28;20123;-83
2023/06/28 00:51:31;;;;;;;4.10;2.00;;;20.90;67.30;;;;;;5063768;28;20055;-83
2023/06/28 00:53:58;;;;;;;2.83;1.95;;;20.90;67.20;;;;;;5067247;28;20023;-83
2023/06/28 00:56:24;;;;;;;2.60;1.70;;;20.90;67.30;;;;;;5064720;28;20016;-82
2023/06/28 00:58:51;;;;;;;1.80;1.58;;;20.90;67.40;;;;;;5064285;28;20025;-83
2023/06/28 01:01:17;;;;;;;5.90;1.70;;;20.90;67.40;;;;;;5061138;28;20043;-82
2023/06/28 01:03:43;;;;;;;2.92;1.50;;;20.90;68.10;;;;;;5060233;28;20027;-83
2023/06/28 01:06:12;;;;;;;3.30;1.70;;;20.90;67.30;;;;;;5064932;28;20473;-83
2023/06/28 01:08:40;;;;;;;3.17;2.10;;;20.90;67.40;;;;;;5064535;28;20049;-83
2023/06/28 01:11:07;;;;;;;4.05;1.65;;;20.90;67.50;;;;;;5060991;28;20067;-83
2023/06/28 01:13:34;;;;;;;2.72;1.55;;;20.90;67.30;;;;;;5068748;28;20028;-82
2023/06/28 01:16:00;;;;;;;3.20;2.08;;;20.90;67.30;;;;;;5068202;28;20035;-84
2023/06/28 01:18:26;;;;;;;4.32;1.92;;;20.90;67.10;;;;;;5069501;28;20017;-83
2023/06/28 01:20:54;;;;;;;2.55;1.67;;;20.90;67.40;;;;;;5068576;28;20476;-83
2023/06/28 01:23:25;;;;;;;3.53;1.67;;;20.90;67.10;;;;;;5067604;28;20020;-83
2023/06/28 01:25:52;;;;;;;2.90;1.80;;;20.90;67.00;;;;;;5063506;28;20040;-83
2023/06/28 01:28:19;;;;;;;10.32;1.77;;;20.90;67.00;;;;;;5065599;28;20020;-83
2023/06/28 01:30:48;;;;;;;3.97;1.63;;;20.90;67.10;;;;;;5069380;28;20024;-83
2023/06/28 01:33:17;;;;;;;7.93;1.67;;;20.90;67.20;;;;;;5067862;28;20016;-83
2023/06/28 01:35:43;;;;;;;3.05;2.17;;;20.90;67.00;;;;;;5065110;28;20150;-84
2023/06/28 01:38:13;;;;;;;8.10;1.95;;;20.90;67.40;;;;;;5066620;28;20120;-83
2023/06/28 01:40:39;;;;;;;6.60;2.00;;;20.90;67.90;;;;;;5066651;28;20426;-84
2023/06/28 01:43:06;;;;;;;3.65;1.60;;;20.80;68.00;;;;;;5061581;28;20033;-83
2023/06/28 01:45:36;;;;;;;5.55;2.38;;;20.80;68.20;;;;;;5066730;28;20066;-82
2023/06/28 01:48:03;;;;;;;4.70;1.80;;;20.80;68.20;;;;;;5068278;28;20109;-83
2023/06/28 01:50:29;;;;;;;5.88;2.20;;;20.80;68.50;;;;;;5066553;28;20020;-83
2023/06/28 01:53:01;;;;;;;4.40;1.90;;;20.80;68.30;;;;;;5068382;28;20032;-86
2023/06/28 01:55:27;;;;;;;4.35;1.50;;;20.80;68.30;;;;;;5068488;28;20029;-83
2023/06/28 01:57:53;;;;;;;4.55;1.70;;;20.80;68.50;;;;;;5066254;28;20385;-85
2023/06/28 02:00:19;;;;;;;5.68;2.00;;;20.80;68.40;;;;;;5068816;28;20025;-83
2023/06/28 02:02:45;;;;;;;6.00;2.00;;;20.80;68.30;;;;;;5065080;28;20025;-83
2023/06/28 02:05:11;;;;;;;2.83;1.38;;;20.80;68.20;;;;;;5064701;28;20029;-83
2023/06/28 02:07:37;;;;;;;5.80;1.70;;;20.80;68.30;;;;;;5067030;28;20109;-83
2023/06/28 02:10:04;;;;;;;6.03;2.10;;;20.80;68.30;;;;;;5065245;28;20107;-85
2023/06/28 02:12:29;;;;;;;3.03;1.70;;;20.80;68.40;;;;;;5068967;28;20168;-84
2023/06/28 02:14:55;;;;;;;7.20;1.90;;;20.80;68.40;;;;;;5062318;28;20112;-84
2023/06/28 02:17:21;;;;;;;5.75;1.95;;;20.80;67.90;;;;;;5068457;28;20440;-84
2023/06/28 02:19:50;;;;;;;4.43;1.95;;;20.80;67.90;;;;;;5066674;28;20074;-85
2023/06/28 02:22:16;;;;;;;7.40;1.50;;;20.80;68.00;;;;;;5066929;28;20048;-84
2023/06/28 02:24:43;;;;;;;11.30;2.08;;;20.80;68.20;;;;;;5067523;28;20470;-84
2023/06/28 02:27:09;;;;;;;7.22;1.90;;;20.80;68.00;;;;;;5064451;28;20374;-83
2023/06/28 02:29:35;;;;;;;4.30;1.77;;;20.80;69.00;;;;;;5060525;28;20203;-84
2023/06/28 02:32:01;;;;;;;5.00;1.95;;;20.80;68.30;;;;;;5063997;28;20043;-84
2023/06/28 02:34:27;;;;;;;4.90;1.75;;;20.80;68.40;;;;;;5065634;28;20548;-83
2023/06/28 02:36:52;;;;;;;3.55;2.03;;;20.80;68.60;;;;;;5066676;28;20432;-83
2023/06/28 02:39:18;;;;;;;6.22;2.00;;;20.80;68.50;;;;;;5066417;28;20050;-83
2023/06/28 02:41:44;;;;;;;6.78;2.05;;;20.80;68.40;;;;;;5060380;28;20033;-83
2023/06/28 02:44:10;;;;;;;5.13;1.98;;;20.80;68.30;;;;;;5063033;28;20491;-83
2023/06/28 02:46:35;;;;;;;3.65;1.90;;;20.80;68.20;;;;;;5066003;28;20028;-84
2023/06/28 02:49:01;;;;;;;3.72;1.65;;;20.80;68.30;;;;;;5062145;28;20120;-84
2023/06/28 02:51:27;;;;;;;4.97;2.22;;;20.80;68.40;;;;;;5065923;28;20024;-83
2023/06/28 02:53:53;;;;;;;8.40;2.20;;;20.80;68.40;;;;;;5062735;28;20043;-83
2023/06/28 02:56:18;;;;;;;3.38;1.80;;;20.80;68.30;;;;;;5060322;28;20083;-83
2023/06/28 02:58:44;;;;;;;4.82;1.70;;;20.80;68.30;;;;;;5062476;28;20040;-83
2023/06/28 03:01:10;;;;;;;4.45;2.08;;;20.80;68.40;;;;;;5064851;28;20028;-83
2023/06/28 03:03:36;;;;;;;4.55;1.75;;;20.80;68.40;;;;;;5066834;28;20045;-84
2023/06/28 03:06:03;;;;;;;10.85;2.03;;;20.80;68.40;;;;;;5068344;28;20077;-83
2023/06/28 03:08:29;;;;;;;13.25;2.30;;;20.80;68.40;;;;;;5086019;28;20032;-83
2023/06/28 03:10:55;;;;;;;4.10;2.13;;;20.80;68.50;;;;;;5064649;28;20526;-83
2023/06/28 03:13:20;;;;;;;7.88;1.50;;;20.80;68.50;;;;;;5061947;28;20032;-83
2023/06/28 03:15:46;;;;;;;7.22;2.53;;;20.80;68.50;;;;;;5058042;28;20032;-83
2023/06/28 03:18:11;;;;;;;6.43;2.13;;;20.80;68.50;;;;;;5060556;28;20035;-83
2023/06/28 03:20:37;;;;;;;5.50;1.95;;;20.80;68.60;;;;;;5064882;28;20017;-83
2023/06/28 03:23:03;;;;;;;6.47;2.03;;;20.80;68.50;;;;;;5068327;28;20021;-83
2023/06/28 03:25:29;;;;;;;5.10;2.20;;;20.80;68.50;;;;;;5064709;28;20032;-83
2023/06/28 03:27:56;;;;;;;4.43;1.83;;;20.80;68.60;;;;;;5062392;28;20470;-83
2023/06/28 03:30:21;;;;;;;7.32;2.22;;;20.70;68.70;;;;;;5060418;28;20571;-83
2023/06/28 03:32:47;;;;;;;7.28;1.90;;;20.70;68.60;;;;;;5059773;28;20084;-84
2023/06/28 03:35:13;;;;;;;5.75;1.50;;;20.70;68.60;;;;;;5067772;28;20161;-83
2023/06/28 03:37:38;;;;;;;5.68;2.00;;;20.80;68.70;;;;;;5068475;28;20035;-84
2023/06/28 03:40:05;;;;;;;6.20;2.15;;;20.70;68.70;;;;;;5066161;28;20487;-83
2023/06/28 03:42:31;;;;;;;4.68;2.45;;;20.80;68.70;;;;;;5061380;28;20543;-83
2023/06/28 03:44:56;;;;;;;6.38;2.17;;;20.70;69.30;;;;;;5060597;28;20024;-83
2023/06/28 03:47:22;;;;;;;4.50;1.80;;;20.80;68.80;;;;;;5061980;28;20035;-83
2023/06/28 03:49:47;;;;;;;3.75;1.83;;;20.70;68.80;;;;;;5062166;28;20484;-84
2023/06/28 03:52:13;;;;;;;3.90;1.85;;;20.70;68.70;;;;;;5068145;28;20107;-84
2023/06/28 03:54:39;;;;;;;10.77;2.55;;;20.80;68.90;;;;;;5066193;28;20008;-83
2023/06/28 03:57:05;;;;;;;4.45;2.15;;;20.80;68.90;;;;;;5067661;28;20021;-83
2023/06/28 03:59:31;;;;;;;8.43;2.35;;;20.70;69.00;;;;;;5063086;28;20147;-83
2023/06/28 04:01:56;;;;;;;4.28;2.30;;;20.80;69.00;;;;;;5061896;28;20027;-84
2023/06/28 04:04:22;;;;;;;3.33;2.15;;;20.70;69.00;;;;;;5067890;28;20028;-84
2023/06/28 04:06:48;;;;;;;11.32;3.45;;;20.70;69.00;;;;;;5062445;28;20028;-83
2023/06/28 04:09:15;;;;;;;8.68;2.60;;;20.70;69.10;;;;;;5064139;28;20104;-85
2023/06/28 04:11:41;;;;;;;6.95;2.50;;;20.70;69.10;;;;;;5066752;28;20028;-83
2023/06/28 04:14:06;;;;;;;7.05;2.72;;;20.70;69.20;;;;;;5065481;28;20046;-84
2023/06/28 04:16:32;;;;;;;9.05;3.33;;;20.70;69.20;;;;;;5068322;28;20029;-92
2023/06/28 04:18:59;;;;;;;10.13;3.08;;;20.70;69.20;;;;;;5065079;28;20052;-84
2023/06/28 04:21:26;;;;;;;5.03;2.10;;;20.70;69.30;;;;;;5066082;28;20031;-84
2023/06/28 04:23:51;;;;;;;3.75;2.30;;;20.70;69.40;;;;;;5063062;28;20013;-84
2023/06/28 04:26:19;;;;;;;4.80;1.95;;;20.70;69.50;;;;;;5066581;28;20023;-84
2023/06/28 04:28:45;;;;;;;3.60;2.10;;;20.70;69.50;;;;;;5064861;28;20469;-84
2023/06/28 04:31:10;;;;;;;5.10;2.00;;;20.70;69.60;;;;;;5066836;28;20028;-82
2023/06/28 04:33:36;;;;;;;5.25;1.55;;;20.70;69.60;;;;;;5064798;28;20025;-84
2023/06/28 04:36:02;;;;;;;8.50;2.00;;;20.70;69.60;;;;;;5065678;28;20016;-85
2023/06/28 04:38:31;;;;;;;3.67;1.63;;;20.70;69.70;;;;;;5061496;28;20020;-84
2023/06/28 04:40:57;;;;;;;3.78;2.20;;;20.70;69.70;;;;;;5060516;28;20032;-84
2023/06/28 04:43:23;;;;;;;5.10;2.42;;;20.70;69.90;;;;;;5068116;28;20640;-84
2023/06/28 04:45:48;;;;;;;2.80;1.65;;;20.70;70.00;;;;;;5063132;28;20028;-83
2023/06/28 04:48:14;;;;;;;4.05;2.25;;;20.70;69.90;;;;;;5065785;28;20029;-84
2023/06/28 04:50:40;;;;;;;3.17;1.92;;;20.70;70.00;;;;;;5070594;28;20090;-83
2023/06/28 04:53:06;;;;;;;4.20;2.10;;;20.70;70.00;;;;;;5068235;28;20373;-84
2023/06/28 04:55:34;;;;;;;8.10;2.47;;;20.70;70.20;;;;;;5063993;28;20049;-83
2023/06/28 04:58:04;;;;;;;5.72;2.20;;;20.70;70.10;;;;;;5072579;28;20033;-85
2023/06/28 05:00:33;;;;;;;6.75;2.50;;;20.70;70.10;;;;;;5063516;28;20048;-84
2023/06/28 05:03:02;;;;;;;4.60;1.80;;;20.70;70.10;;;;;;5067989;28;20446;-85
2023/06/28 05:05:29;;;;;;;7.53;2.50;;;20.70;70.20;;;;;;5070446;28;20366;-84
2023/06/28 05:07:55;;;;;;;7.25;2.42;;;20.70;70.20;;;;;;5068839;28;20123;-84
2023/06/28 05:10:22;;;;;;;3.97;2.00;;;20.70;70.30;;;;;;5071675;28;20028;-84
2023/06/28 05:12:51;;;;;;;6.95;2.28;;;20.70;70.30;;;;;;5070994;28;20082;-83
2023/06/28 05:15:18;;;;;;;4.32;2.47;;;20.70;70.50;;;;;;5072743;28;20020;-83
2023/06/28 05:17:44;;;;;;;8.43;2.38;;;20.70;70.40;;;;;;5064208;28;20118;-82
2023/06/28 05:20:10;;;;;;;4.47;2.58;;;20.70;70.50;;;;;;5072371;28;20020;-91
2023/06/28 05:22:43;;;;;;;4.10;2.58;;;20.40;69.90;;;;;;5055357;28;20025;-91
2023/06/28 05:25:09;;;;;;;5.70;2.30;;;20.10;71.30;;;;;;5070235;28;20036;-83
2023/06/28 05:27:35;;;;;;;7.63;2.88;;;20.10;71.70;;;;;;5062700;28;20532;-84
2023/06/28 05:30:00;;;;;;;5.28;2.03;;;20.20;71.10;;;;;;5062797;28;20029;-83
2023/06/28 05:32:26;;;;;;;5.03;1.67;;;20.40;70.80;;;;;;5061728;28;20079;-85
2023/06/28 05:34:51;;;;;;;5.30;2.42;;;20.40;70.60;;;;;;5060798;28;20017;-85
2023/06/28 05:37:17;;;;;;;2.47;1.55;;;20.50;70.60;;;;;;5063426;28;20029;-83
2023/06/28 05:39:43;;;;;;;5.13;2.10;;;20.50;70.50;;;;;;5063491;28;20025;-83
2023/06/28 05:42:09;;;;;;;4.07;1.75;;;20.50;70.40;;;;;;5052512;28;20570;-82
2023/06/28 05:44:34;;;;;;;8.65;2.10;;;20.50;70.40;;;;;;5059332;28;20051;-83
2023/06/28 05:47:00;;;;;;;11.57;2.05;;;20.60;71.10;;;;;;5065066;28;20099;-84
2023/06/28 05:49:26;;;;;;;3.88;1.88;;;20.50;70.30;;;;;;5063361;28;20488;-83
2023/06/28 05:51:51;;;;;;;3.92;2.03;;;20.60;70.50;;;;;;5062698;28;20029;-85
2023/06/28 05:54:17;;;;;;;5.13;2.17;;;20.60;70.50;;;;;;5063576;28;20044;-85
2023/06/28 05:56:43;;;;;;;5.15;1.95;;;20.50;70.40;;;;;;5062970;28;20115;-83
2023/06/28 05:59:09;;;;;;;3.75;2.20;;;20.50;70.40;;;;;;5064039;28;20055;-84
2023/06/28 06:01:35;;;;;;;6.75;2.22;;;20.60;70.50;;;;;;5057259;28;20056;-84
2023/06/28 06:04:00;;;;;;;6.63;2.20;;;20.60;70.50;;;;;;5061374;28;20433;-84
2023/06/28 06:06:26;;;;;;;3.28;1.90;;;20.60;70.50;;;;;;5064336;28;20029;-83
2023/06/28 06:08:51;;;;;;;2.72;1.95;;;20.60;70.60;;;;;;5067767;28;20031;-85
2023/06/28 06:11:17;;;;;;;3.92;2.20;;;20.60;70.60;;;;;;5063258;28;20031;-84
2023/06/28 06:13:43;;;;;;;4.32;1.75;;;20.60;70.80;;;;;;5060104;28;20404;-84
2023/06/28 06:16:08;;;;;;;7.70;2.00;;;20.60;70.80;;;;;;5061026;28;20472;-83
2023/06/28 06:18:36;;;;;;;2.47;1.90;;;20.60;70.80;;;;;;5066067;28;20032;-84
2023/06/28 06:21:02;;;;;;;4.80;2.50;;;20.60;70.80;;;;;;5058740;28;20432;-84
2023/06/28 06:23:28;;;;;;;5.43;2.00;;;20.60;70.90;;;;;;5068613;28;20024;-83
2023/06/28 06:25:54;;;;;;;8.98;2.38;;;20.60;71.00;;;;;;5066277;28;20078;-84
2023/06/28 06:28:20;;;;;;;5.38;1.75;;;20.60;71.70;;;;;;5061326;28;20028;-83
2023/06/28 06:30:51;;;;;;;3.15;1.85;;;20.60;70.90;;;;;;5062987;28;20147;-83
2023/06/28 06:33:20;;;;;;;12.98;2.40;;;20.60;71.00;;;;;;5064115;28;20487;-84
2023/06/28 06:35:47;;;;;;;6.50;2.60;;;20.60;71.00;;;;;;5061735;28;20033;-84
2023/06/28 06:38:18;;;;;;;6.43;2.33;;;20.60;71.00;;;;;;5066360;28;20063;-84
2023/06/28 06:40:45;;;;;;;4.53;2.15;;;20.60;71.10;;;;;;5070657;28;20028;-85
2023/06/28 06:43:13;;;;;;;6.00;1.90;;;20.60;71.00;;;;;;5068444;28;20012;-84
2023/06/28 06:45:39;;;;;;;5.00;2.17;;;20.60;71.00;;;;;;5066766;28;20067;-84
2023/06/28 06:48:05;;;;;;;5.25;2.20;;;20.60;71.10;;;;;;5065349;28;20021;-84
2023/06/28 06:50:52;;;;;;;5.00;2.17;;;20.60;71.20;;;;;;5064981;28;20075;-84
2023/06/28 06:53:24;;;;;;;7.10;2.10;;;20.60;71.20;;;;;;5068353;28;20119;-85
2023/06/28 06:55:50;;;;;;;9.25;1.98;;;20.60;71.20;;;;;;5065124;28;20021;-83
2023/06/28 06:58:16;;;;;;;3.88;1.92;;;20.60;71.30;;;;;;5067981;28;20190;-84
2023/06/28 07:00:41;;;;;;;6.32;2.30;;;20.60;71.30;;;;;;5064385;28;20016;-84
2023/06/28 07:03:07;;;;;;;4.65;2.60;;;20.60;71.30;;;;;;5064724;28;20081;-83
2023/06/28 07:05:35;;;;;;;8.63;2.08;;;20.60;71.40;;;;;;5063078;28;20107;-84
2023/06/28 07:08:01;;;;;;;4.28;1.80;;;20.60;71.30;;;;;;5065388;28;20021;-85
2023/06/28 07:10:27;;;;;;;7.68;2.28;;;20.60;71.30;;;;;;5063537;28;20028;-84
2023/06/28 07:12:53;;;;;;;3.80;2.15;;;20.60;71.50;;;;;;5044501;28;20028;-85
2023/06/28 07:15:30;;;;;;;4.18;2.20;;;20.60;71.50;;;;;;5065563;28;20074;-84
2023/06/28 07:17:56;;;;;;;6.88;2.03;;;20.60;71.50;;;;;;5060487;28;20067;-84
2023/06/28 07:20:22;;;;;;;3.60;1.90;;;20.60;71.50;;;;;;5064290;28;20052;-84
2023/06/28 07:22:48;;;;;;;7.60;2.35;;;20.60;71.40;;;;;;5046899;28;20074;-85
2023/06/28 07:25:13;;;;;;;6.35;2.15;;;20.60;71.50;;;;;;5062313;28;20033;-84
2023/06/28 07:27:39;;;;;;;3.88;1.88;;;20.60;71.50;;;;;;5065499;28;20392;-85
2023/06/28 07:30:07;;;;;;;10.23;2.15;;;20.60;71.60;;;;;;5062728;28;20033;-84
2023/06/28 07:32:33;;;;;;;5.85;1.80;;;20.60;71.60;;;;;;5061959;28;20040;-85
2023/06/28 07:34:58;;;;;;;6.65;2.85;;;20.60;71.70;;;;;;5065472;28;20480;-84
2023/06/28 07:37:24;;;;;;;3.90;2.05;;;20.60;71.80;;;;;;5063741;28;20385;-83
2023/06/28 07:39:50;;;;;;;7.20;2.40;;;20.60;71.80;;;;;;5062898;28;20028;-83
2023/06/28 07:42:16;;;;;;;4.72;2.10;;;20.60;71.80;;;;;;5065414;28;20024;-82
2023/06/28 07:44:41;;;;;;;8.52;2.10;;;20.60;71.80;;;;;;5063509;28;20021;-83
2023/06/28 07:47:07;;;;;;;4.88;2.20;;;20.60;71.80;;;;;;5062534;28;20492;-85
2023/06/28 07:49:36;;;;;;;6.82;2.33;;;20.60;71.80;;;;;;5065128;28;20082;-83
2023/06/28 07:52:02;;;;;;;9.88;2.20;;;20.60;71.90;;;;;;5065087;28;20027;-85
2023/06/28 07:54:27;;;;;;;6.53;2.08;;;20.60;71.90;;;;;;5064269;28;20385;-85
2023/06/28 07:56:53;;;;;;;4.78;2.10;;;20.70;72.00;;;;;;5061517;28;20063;-83
2023/06/28 07:59:20;;;;;;;10.13;2.35;;;20.60;71.90;;;;;;5060347;28;20470;-84
2023/06/28 08:01:46;;;;;;;7.43;1.92;;;20.60;72.10;;;;;;5058008;28;20037;-84
2023/06/28 08:04:12;;;;;;;4.70;2.17;;;20.60;72.10;;;;;;5061042;28;20119;-84
2023/06/28 08:06:37;;;;;;;9.75;2.15;;;20.60;72.40;;;;;;5059858;28;20265;-85
2023/06/28 08:09:03;;;;;;;8.23;1.83;;;20.70;72.40;;;;;;5064151;28;20082;-85
2023/06/28 08:11:29;;;;;;;4.63;2.15;;;20.60;72.30;;;;;;5059929;28;20573;-84
2023/06/28 08:13:55;;;;;;;5.30;2.40;;;20.60;72.30;;;;;;5068383;28;20023;-84
2023/06/28 08:16:20;;;;;;;6.60;1.98;;;20.70;72.40;;;;;;5057689;28;20537;-84
2023/06/28 08:18:46;;;;;;;2.20;1.75;;;20.60;72.30;;;;;;5060122;28;20115;-83
2023/06/28 08:21:14;;;;;;;7.03;1.80;;;20.60;72.30;;;;;;5061821;28;20076;-85
2023/06/28 08:23:39;;;;;;;5.43;2.38;;;20.70;72.50;;;;;;5063875;28;20448;-84
2023/06/28 08:26:05;;;;;;;2.95;1.77;;;20.60;72.60;;;;;;5062939;28;20031;-84
2023/06/28 08:28:31;;;;;;;7.25;2.45;;;20.70;72.70;;;;;;5060982;28;20021;-85
2023/06/28 08:30:57;;;;;;;4.15;2.05;;;20.60;72.60;;;;;;5057551;28;20109;-84
2023/06/28 08:33:24;;;;;;;5.68;2.03;;;20.70;72.80;;;;;;5057347;28;20496;-84
2023/06/28 08:35:50;;;;;;;3.97;1.63;;;20.70;72.70;;;;;;5062006;28;20016;-84
2023/06/28 08:38:16;;;;;;;7.70;2.38;;;20.70;72.60;;;;;;5056415;28;20377;-84
2023/06/28 08:40:41;;;;;;;4.70;1.95;;;20.70;72.70;;;;;;5059769;28;20025;-85
2023/06/28 08:43:10;;;;;;;4.47;1.63;;;20.70;72.70;;;;;;5067457;28;20052;-84
2023/06/28 08:45:36;;;;;;;3.33;1.90;;;20.70;72.70;;;;;;5058102;28;20428;-84
2023/06/28 08:48:04;;;;;;;3.45;1.90;;;20.70;72.70;;;;;;5058312;28;20017;-84
2023/06/28 08:50:30;;;;;;;7.63;2.08;;;20.70;72.90;;;;;;5063812;28;20027;-84
2023/06/28 08:52:57;;;;;;;2.85;1.75;;;20.70;72.70;;;;;;5057487;28;20088;-84
2023/06/28 08:55:23;;;;;;;2.47;1.70;;;20.70;72.90;;;;;;5065686;28;20136;-84
2023/06/28 08:57:49;;;;;;;6.05;2.35;;;20.70;72.90;;;;;;5063210;28;20021;-84
2023/06/28 09:00:16;;;;;;;2.90;1.65;;;20.70;73.00;;;;;;5063307;28;20123;-84
2023/06/28 09:02:42;;;;;;;5.18;2.10;;;20.70;73.10;;;;;;5065281;28;20120;-85
2023/06/28 09:05:09;;;;;;;5.53;2.20;;;20.70;73.00;;;;;;5062446;28;20032;-84
2023/06/28 09:07:39;;;;;;;4.88;1.83;;;20.70;73.10;;;;;;5062235;28;20029;-85
2023/06/28 09:10:09;;;;;;;4.53;1.90;;;20.70;73.80;;;;;;5066577;28;20020;-84
2023/06/28 09:12:35;;;;;;;5.93;1.77;;;20.70;73.00;;;;;;5064830;28;20495;-85
2023/06/28 09:15:03;;;;;;;7.00;1.98;;;20.70;72.90;;;;;;5063524;28;20078;-84
2023/06/28 09:17:29;;;;;;;3.97;2.00;;;20.70;72.90;;;;;;5064349;28;20029;-85
2023/06/28 09:20:18;;;;;;;5.72;2.00;;;20.70;73.50;;;;;;5068078;28;20032;-88
2023/06/28 09:22:57;;;;;;;3.05;1.85;;;20.70;70.30;;;;;;5061567;28;20507;-88
2023/06/28 09:25:27;;;;;;;7.07;2.42;;;20.50;68.50;;;;;;5062164;28;20028;-88
2023/06/28 09:27:58;;;;;;;4.60;1.88;;;20.40;68.10;;;;;;5064800;28;20032;-88
2023/06/28 09:30:24;;;;;;;6.07;1.67;;;20.40;67.30;;;;;;5064905;28;20025;-88
2023/06/28 09:32:51;;;;;;;3.05;1.70;;;20.30;67.20;;;;;;5062799;28;20020;-89
2023/06/28 09:35:21;;;;;;;5.28;1.80;;;20.40;67.50;;;;;;5072045;28;20120;-87
2023/06/28 09:37:58;;;;;;;5.47;2.20;;;20.30;67.20;;;;;;5066647;28;20028;-89
2023/06/28 09:40:24;;;;;;;3.40;1.85;;;20.30;66.20;;;;;;5080193;28;20036;-87
2023/06/28 09:42:51;;;;;;;6.55;2.13;;;20.30;65.80;;;;;;5067040;28;20037;-86
2023/06/28 09:45:27;;;;;;;5.38;2.03;;;20.30;66.20;;;;;;5066905;28;20051;-89
2023/06/28 09:47:57;;;;;;;7.85;2.10;;;20.40;65.90;;;;;;5070559;28;20050;-89
2023/06/28 09:50:47;;;;;;;3.88;1.80;;;20.40;65.60;;;;;;5069233;28;20100;-87
2023/06/28 09:53:19;;;;;;;4.63;1.85;;;20.40;66.70;;;;;;5053806;28;20032;-89
2023/06/28 09:55:47;;;;;;;4.80;2.00;;;20.40;66.60;;;;;;5071369;28;20028;-87
2023/06/28 09:58:15;;;;;;;3.05;1.75;;;20.30;66.20;;;;;;5071369;28;20033;-88
2023/06/28 10:00:43;;;;;;;5.30;2.10;;;20.40;66.60;;;;;;5066736;28;20060;-88
2023/06/28 10:03:10;;;;;;;4.70;1.80;;;20.40;65.90;;;;;;5072253;28;20059;-89
2023/06/28 10:05:37;;;;;;;2.70;1.55;;;20.50;65.10;;;;;;5066787;28;20360;-89
2023/06/28 10:08:10;;;;;;;4.72;2.10;;;20.40;65.30;;;;;;5086455;28;20020;-88
2023/06/28 10:10:38;;;;;;;4.82;2.17;;;20.50;65.50;;;;;;5064576;28;20052;-87
2023/06/28 10:13:07;;;;;;;4.05;1.50;;;20.50;65.10;;;;;;5068501;28;20373;-88
2023/06/28 10:16:24;;;;;;;9.25;1.65;;;20.50;65.20;;;;;;5067968;28;20017;-88
2023/06/28 10:18:50;;;;;;;1.98;1.58;;;20.50;65.20;;;;;;5068277;28;20037;-88
2023/06/28 10:21:17;;;;;;;7.57;2.05;;;20.50;65.20;;;;;;5074179;28;20472;-89
2023/06/28 10:23:43;;;;;;;5.55;1.70;;;20.50;65.00;;;;;;5069071;28;20021;-87
2023/06/28 10:26:12;;;;;;;2.65;1.80;;;20.50;65.30;;;;;;5072557;28;20020;-87
2023/06/28 10:28:40;;;;;;;2.80;1.90;;;20.50;65.70;;;;;;5067118;28;20025;-86
2023/06/28 10:31:06;;;;;;;7.50;2.10;;;20.50;65.60;;;;;;5067029;28;20354;-88
2023/06/28 10:33:36;;;;;;;4.13;1.65;;;20.50;64.40;;;;;;5067829;28;20051;-87
2023/06/28 10:36:03;;;;;;;4.18;1.55;;;20.50;64.80;;;;;;5069073;28;20096;-86
2023/06/28 10:38:46;;;;;;;4.80;1.92;;;20.50;65.00;;;;;;5070849;28;20028;-86
2023/06/28 10:41:16;;;;;;;3.22;2.03;;;20.60;65.10;;;;;;5070785;28;20073;-87
2023/06/28 10:43:42;;;;;;;3.70;1.67;;;20.70;64.30;;;;;;5067910;28;20059;-86
2023/06/28 10:46:25;;;;;;;4.72;1.48;;;20.80;65.00;;;;;;5064511;28;20373;-87
2023/06/28 10:48:56;;;;;;;5.20;2.03;;;20.70;65.20;;;;;;5068687;28;20069;-86
2023/06/28 10:51:25;;;;;;;2.83;1.77;;;20.60;64.80;;;;;;5069267;28;20488;-83
2023/06/28 10:54:05;;;;;;;3.55;1.88;;;20.60;65.10;;;;;;5082621;28;20021;-83
2023/06/28 10:57:00;;;;;;;;;;;20.50;66.10;;;;;;5067112;28;20185;-86
2023/06/28 10:59:26;;;;;;;8.20;1.67;;;20.60;66.40;;;;;;5060755;28;19911;-86
2023/06/28 11:01:53;;;;;;;5.10;1.58;;;20.60;64.40;;;;;;5060143;28;20029;-87
2023/06/28 11:04:23;;;;;;;4.93;1.55;;;20.60;64.40;;;;;;5067924;28;20028;-84
2023/06/28 11:07:30;;;;;;;4.00;1.90;;;20.60;65.60;;;;;;5056833;28;20596;-86
2023/06/28 11:10:16;;;;;;;7.40;1.98;;;20.60;65.30;;;;;;5061233;28;20036;-86
2023/06/28 11:12:46;;;;;;;3.13;1.23;;;20.50;65.70;;;;;;5065609;28;20029;-86
2023/06/28 11:15:13;;;;;;;3.47;1.55;;;20.50;66.40;;;;;;5059820;28;20067;-85
2023/06/28 11:17:39;;;;;;;5.32;1.58;;;20.50;66.30;;;;;;5059434;28;20146;-85
2023/06/28 11:20:06;;;;;;;3.22;1.80;;;20.60;65.70;;;;;;5067339;28;20115;-85
2023/06/28 11:23:01;;;;;;;7.95;1.38;;;20.70;63.90;;;;;;5060461;28;20035;-86
2023/06/28 11:25:32;;;;;;;2.00;1.35;;;20.90;65.30;;;;;;4993612;28;20049;-86
2023/06/28 11:27:58;;;;;;;2.20;1.10;;;21.00;64.70;;;;;;4992412;28;20030;-86
2023/06/28 11:30:47;;;;;;;1.90;1.30;;;21.10;64.40;;;;;;4985695;28;20088;-93
2023/06/28 11:33:14;;;;;;;5.43;1.45;;;21.10;64.40;;;;;;4985708;28;20034;-87
2023/06/28 11:35:40;;;;;;;2.17;1.38;;;21.20;64.40;;;;;;4987427;28;20033;-87
2023/06/28 11:38:07;;;;;;;4.00;1.45;;;21.20;64.50;;;;;;4978611;28;20030;-87
2023/06/28 11:40:33;;;;;;;2.88;1.40;;;21.10;63.20;;;;;;4975798;28;20054;-88
2023/06/28 11:42:59;;;;;;;3.17;1.17;;;21.10;63.00;;;;;;4983248;28;20138;-91
2023/06/28 11:45:27;;;;;;;4.38;1.38;;;21.00;64.00;;;;;;4987970;28;20022;-90
2023/06/28 11:47:53;;;;;;;7.53;1.60;;;20.90;64.30;;;;;;4984845;28;20030;-92
2023/06/28 11:50:19;;;;;;;2.90;1.10;;;20.90;63.80;;;;;;4982567;28;20022;-94
2023/06/28 11:52:47;;;;;;;3.65;1.60;;;20.90;63.80;;;;;;4986225;28;20018;-88
2023/06/28 11:55:16;;;;;;;4.15;1.75;;;20.90;64.20;;;;;;4984437;28;20027;-88
2023/06/28 11:57:44;;;;;;;4.75;1.70;;;20.90;64.30;;;;;;4991896;28;20511;-87
2023/06/28 12:00:11;;;;;;;6.78;1.52;;;20.90;63.80;;;;;;4988369;28;20026;-86
2023/06/28 12:02:47;;;;;;;3.20;1.80;;;20.90;63.10;;;;;;5056152;28;20024;-86
2023/06/28 12:05:17;;;;;;;3.63;1.55;;;20.90;61.70;;;;;;5062616;28;20021;-85
2023/06/28 12:07:46;;;;;;;2.58;1.50;;;20.90;62.10;;;;;;5059848;28;20504;-87
2023/06/28 12:10:13;;;;;;;3.80;1.60;;;20.90;62.00;;;;;;5057080;28;20083;-88
2023/06/28 12:12:38;;;;;;;4.75;1.75;;;20.90;61.50;;;;;;5069891;28;20085;-87
2023/06/28 12:15:13;;;;;;;5.65;1.73;;;20.90;60.70;;;;;;5066146;28;20025;-92
2023/06/28 12:17:45;;;;;;;2.97;1.42;;;20.90;61.80;;;;;;5070677;28;20086;-94
2023/06/28 12:20:12;;;;;;;2.20;1.13;;;20.90;60.70;;;;;;5064479;28;20021;-87
2023/06/28 12:22:43;;;;;;;4.75;1.40;;;20.90;61.60;;;;;;5066428;28;20083;-87
2023/06/28 12:25:09;;;;;;;7.20;1.48;;;20.90;61.90;;;;;;5063093;28;20055;-89
2023/06/28 12:27:38;;;;;;;3.03;1.42;;;20.90;63.10;;;;;;5060730;28;20021;-87
2023/06/28 12:30:15;;;;;;;3.33;1.50;;;20.90;63.40;;;;;;5064628;28;20041;-86
2023/06/28 12:32:47;;;;;;;6.70;1.55;;;20.90;63.70;;;;;;5061684;28;20016;-88
2023/06/28 12:35:23;;;;;;;1.40;1.20;;;20.90;63.60;;;;;;5066041;28;20048;-88
2023/06/28 12:37:56;;;;;;;2.88;1.70;;;20.90;63.40;;;;;;5059109;28;20388;-88
2023/06/28 12:40:26;;;;;;;3.42;1.40;;;20.80;62.60;;;;;;5057743;28;20033;-87
2023/06/28 12:43:28;;;;;;;2.95;1.30;;;20.80;61.40;;;;;;5061625;28;20024;-89
2023/06/28 12:45:55;;;;;;;5.00;1.60;;;20.80;60.00;;;;;;5000067;28;20037;-86
2023/06/28 12:48:21;;;;;;;6.60;1.50;;;20.80;60.10;;;;;;4986199;28;20053;-87